Time;durP1;ratioP1;P1;durP2;ratioP2;P2;SDS_P1;SDS_P2;PMS_P1;PMS_P2;Temp;Humidity;BMP_temperature;BMP_pressure;BME280_temperature;BME280_humidity;BME280_pressure;Samples;Min_cycle;Max_cycle;Signal;HPM_P1;HPM_P2
2022/10/27 00:04:26;;;;;;;16.43;9.23;;;;;15.40;99690.00;;;;16519904;28;20224;-48
2022/10/27 00:12:31;;;;;;;9.83;6.87;;;;;14.10;99680.00;;;;16510607;28;20227;-47
2022/10/27 00:20:34;;;;;;;17.97;8.33;;;;;14.00;99679.00;;;;16506773;28;20234;-48
2022/10/27 00:28:37;;;;;;;14.73;7.73;;;;;14.70;99686.00;;;;16519332;28;20307;-48
2022/10/27 00:36:40;;;;;;;12.10;7.83;;;;;14.20;99689.00;;;;16517499;28;20788;-48
2022/10/27 00:44:45;;;;;;;11.20;7.50;;;;;14.50;99700.00;;;;16513206;28;20647;-49
2022/10/27 00:52:49;;;;;;;11.37;7.67;;;;;14.50;99705.00;;;;16516623;28;20586;-48
2022/10/27 01:00:53;;;;;;;11.00;7.17;;;;;15.00;99698.00;;;;16513827;28;20302;-48
2022/10/27 01:08:57;;;;;;;9.67;8.03;;;;;15.00;99696.00;;;;16503387;28;20884;-48
2022/10/27 01:17:08;;;;;;;12.07;9.93;;;;;14.70;99697.00;;;;16508836;28;20536;-48
2022/10/27 01:25:31;;;;;;;12.13;7.43;;;;;14.80;99698.00;;;;16511500;28;20283;-48
2022/10/27 01:33:38;;;;;;;13.73;8.40;;;;;14.50;99687.00;;;;16514391;28;20238;-48
2022/10/27 01:41:43;;;;;;;10.37;8.40;;;;;14.40;99693.00;;;;16509675;28;20330;-48
2022/10/27 01:49:47;;;;;;;14.50;10.30;;;;;14.70;99699.00;;;;16515506;28;20911;-48
2022/10/27 01:58:01;;;;;;;14.37;9.67;;;;;14.90;99691.00;;;;16515820;28;20249;-48
2022/10/27 02:06:10;;;;;;;10.83;8.90;;;;;14.20;99690.00;;;;16512875;28;20190;-47
2022/10/27 02:14:13;;;;;;;10.57;9.57;;;;;14.40;99683.00;;;;16511933;28;20233;-48
2022/10/27 02:22:17;;;;;;;20.50;10.00;;;;;14.60;99687.00;;;;16508817;28;20718;-48
2022/10/27 02:30:19;;;;;;;9.70;8.47;;;;;14.00;99704.00;;;;16526252;28;20695;-48
2022/10/27 02:38:23;;;;;;;13.73;9.20;;;;;13.70;99703.00;;;;16524404;28;20717;-48
2022/10/27 02:46:25;;;;;;;13.07;9.90;;;;;14.30;99707.00;;;;16525769;28;20202;-48
2022/10/27 02:54:29;;;;;;;11.70;8.60;;;;;14.50;99698.00;;;;16523607;28;20223;-48
2022/10/27 03:02:32;;;;;;;12.73;9.90;;;;;14.40;99698.00;;;;16525461;28;20729;-48
2022/10/27 03:10:35;;;;;;;13.50;9.43;;;;;14.30;99693.00;;;;16516110;28;20231;-48
2022/10/27 03:18:38;;;;;;;13.80;9.67;;;;;14.40;99682.00;;;;16654370;22;20233;-72
2022/10/27 03:26:42;;;;;;;10.40;9.30;;;;;14.40;99686.00;;;;16681608;28;20213;-71
2022/10/27 03:34:44;;;;;;;10.03;8.90;;;;;14.50;99676.00;;;;16690182;28;20293;-71
2022/10/27 03:42:48;;;;;;;9.53;8.70;;;;;14.20;99687.00;;;;16703955;28;20223;-70
2022/10/27 03:50:51;;;;;;;14.50;9.10;;;;;14.20;99689.00;;;;16690843;28;20252;-72
2022/10/27 03:58:56;;;;;;;11.23;9.03;;;;;13.90;99686.00;;;;16683866;28;20229;-72
2022/10/27 04:06:59;;;;;;;7.90;7.13;;;;;12.90;99694.00;;;;16685419;28;20313;-72
2022/10/27 04:15:03;;;;;;;15.70;9.87;;;;;13.60;99689.00;;;;16688418;28;20671;-72
2022/10/27 04:23:06;;;;;;;13.90;9.73;;;;;13.70;99694.00;;;;16695119;28;20295;-72
2022/10/27 04:31:09;;;;;;;9.80;8.90;;;;;14.00;99694.00;;;;16683492;28;20310;-72
2022/10/27 04:39:13;;;;;;;12.60;9.60;;;;;14.20;99702.00;;;;16696662;28;20224;-72
2022/10/27 04:47:17;;;;;;;21.03;10.50;;;;;13.70;99707.00;;;;16701821;28;20214;-79
2022/10/27 04:55:20;;;;;;;11.40;10.20;;;;;13.80;99704.00;;;;16701758;28;20348;-72
2022/10/27 05:03:24;;;;;;;13.40;12.00;;;;;13.90;99714.00;;;;16682245;28;20298;-72
2022/10/27 05:11:26;;;;;;;27.73;14.03;;;;;13.10;99720.00;;;;16682304;28;20244;-73
2022/10/27 05:19:30;;;;;;;27.10;12.50;;;;;12.80;99709.00;;;;16663688;28;20253;-73
2022/10/27 05:27:33;;;;;;;39.27;13.50;;;;;12.80;99719.00;;;;16676468;28;20218;-71
2022/10/27 05:35:37;;;;;;;13.23;9.90;;;;;12.90;99726.00;;;;16699893;28;20222;-71
2022/10/27 05:43:40;;;;;;;13.00;10.20;;;;;13.20;99710.00;;;;16694388;28;20558;-73
2022/10/27 05:51:44;;;;;;;25.10;12.27;;;;;12.80;99711.00;;;;16695333;28;20246;-72
2022/10/27 05:59:47;;;;;;;45.93;13.20;;;;;12.40;99711.00;;;;16683164;28;20250;-71
2022/10/27 06:07:52;;;;;;;21.73;12.63;;;;;12.20;99704.00;;;;16694104;28;20217;-71
2022/10/27 06:15:54;;;;;;;15.00;13.27;;;;;12.10;99703.00;;;;16697601;28;20628;-71
2022/10/27 06:23:58;;;;;;;23.97;15.10;;;;;12.00;99698.00;;;;16686721;28;20298;-70
2022/10/27 06:32:01;;;;;;;15.80;13.37;;;;;12.20;99721.00;;;;16685596;28;20708;-70
2022/10/27 06:40:06;;;;;;;18.73;14.20;;;;;12.20;99728.00;;;;16685780;28;20288;-72
2022/10/27 06:48:09;;;;;;;14.50;13.00;;;;;12.40;99736.00;;;;16670704;28;20333;-72
2022/10/27 06:56:13;;;;;;;15.90;12.97;;;;;12.40;99745.00;;;;16690857;28;20281;-72
2022/10/27 07:04:15;;;;;;;18.57;13.97;;;;;12.40;99742.00;;;;16681831;28;20622;-72
2022/10/27 07:12:19;;;;;;;13.57;11.80;;;;;12.40;99747.00;;;;16701450;28;20228;-71
2022/10/27 07:20:22;;;;;;;13.47;12.10;;;;;12.50;99739.00;;;;16704817;28;20234;-71
2022/10/27 07:28:26;;;;;;;12.33;10.93;;;;;12.60;99743.00;;;;16702218;28;20221;-71
2022/10/27 07:36:28;;;;;;;14.47;12.80;;;;;12.60;99741.00;;;;16685746;28;20237;-71
2022/10/27 07:44:32;;;;;;;12.83;11.53;;;;;12.70;99746.00;;;;16684994;28;20214;-71
2022/10/27 07:52:41;;;;;;;11.13;9.90;;;;;12.90;99747.00;;;;16685063;28;20251;-71
2022/10/27 08:00:46;;;;;;;10.00;8.83;;;;;13.20;99740.00;;;;16698960;28;20223;-72
2022/10/27 08:08:49;;;;;;;10.33;8.43;;;;;13.50;99740.00;;;;16680325;28;20218;-71
2022/10/27 08:16:53;;;;;;;12.33;10.33;;;;;13.90;99757.00;;;;16692734;28;20233;-72
2022/10/27 08:24:55;;;;;;;9.83;8.80;;;;;14.70;99743.00;;;;16690067;28;20202;-72
2022/10/27 08:33:00;;;;;;;15.83;11.03;;;;;15.10;99744.00;;;;16681170;28;20281;-72
2022/10/27 08:41:10;;;;;;;10.73;8.27;;;;;15.80;99737.00;;;;16694057;28;20697;-73
2022/10/27 08:49:28;;;;;;;21.57;11.50;;;;;16.40;99729.00;;;;16689579;28;20746;-71
2022/10/27 08:57:33;;;;;;;15.93;12.80;;;;;16.70;99729.00;;;;16674011;28;20233;-71
2022/10/27 09:05:46;;;;;;;13.17;9.47;;;;;16.70;99727.00;;;;16675696;28;20273;-72
2022/10/27 09:13:59;;;;;;;10.13;9.07;;;;;17.60;99722.00;;;;16694589;28;20222;-72
2022/10/27 09:22:06;;;;;;;28.17;24.70;;;;;17.90;99711.00;;;;16704169;28;20206;-72
2022/10/27 09:30:14;;;;;;;11.40;8.30;;;;;18.40;99707.00;;;;16701860;28;20249;-72
2022/10/27 09:38:22;;;;;;;17.47;7.90;;;;;19.20;99709.00;;;;16697529;28;20323;-72
2022/10/27 09:46:27;;;;;;;13.33;11.60;;;;;19.80;99701.00;;;;16701724;28;20209;-72
2022/10/27 09:54:33;;;;;;;12.03;8.60;;;;;19.90;99691.00;;;;16682317;28;20351;-72
2022/10/27 10:02:39;;;;;;;9.27;7.23;;;;;20.00;99687.00;;;;16694089;28;20223;-72
2022/10/27 10:10:54;;;;;;;10.67;7.50;;;;;21.10;99694.00;;;;16688798;28;20218;-72
2022/10/27 10:19:04;;;;;;;6.60;5.80;;;;;21.60;99687.00;;;;16702149;28;20238;-72
2022/10/27 10:27:10;;;;;;;11.70;7.03;;;;;22.40;99684.00;;;;16692682;28;20279;-72
2022/10/27 10:35:40;;;;;;;8.50;5.93;;;;;22.80;99664.00;;;;16702371;28;20222;-72
2022/10/27 10:43:44;;;;;;;8.80;5.40;;;;;23.60;99665.00;;;;16699752;28;20273;-73
2022/10/27 10:51:51;;;;;;;10.70;5.73;;;;;23.90;99661.00;;;;16699220;28;20246;-72
2022/10/27 10:59:56;;;;;;;8.70;5.40;;;;;25.10;99652.00;;;;16692878;28;20279;-73
2022/10/27 11:07:59;;;;;;;8.43;4.90;;;;;25.90;99642.00;;;;16692300;28;20218;-73
2022/10/27 11:16:06;;;;;;;11.20;8.60;;;;;26.30;99631.00;;;;16685557;28;20288;-74
2022/10/27 11:24:14;;;;;;;20.67;7.43;;;;;25.60;99628.00;;;;16696610;28;20836;-73
2022/10/27 11:32:22;;;;;;;7.83;4.57;;;;;26.10;99611.00;;;;16691318;28;20363;-73
2022/10/27 11:40:30;;;;;;;6.83;4.40;;;;;27.00;99604.00;;;;16709635;28;20641;-73
2022/10/27 11:48:37;;;;;;;6.57;3.97;;;;;27.50;99598.00;;;;16681375;28;20248;-74
2022/10/27 11:56:48;;;;;;;6.77;3.90;;;;;28.30;99593.00;;;;16688436;28;20222;-73
2022/10/27 12:04:56;;;;;;;7.90;4.60;;;;;28.90;99589.00;;;;16666214;28;20622;-72
2022/10/27 12:13:02;;;;;;;15.27;5.53;;;;;28.90;99578.00;;;;16707882;28;20230;-73
2022/10/27 12:21:10;;;;;;;9.60;4.70;;;;;28.80;99572.00;;;;16709652;28;20328;-73
2022/10/27 12:29:13;;;;;;;7.50;3.67;;;;;29.20;99572.00;;;;16707969;28;20222;-73
2022/10/27 12:37:23;;;;;;;6.63;4.17;;;;;29.60;99565.00;;;;16694760;28;20226;-73
2022/10/27 12:45:37;;;;;;;6.97;3.50;;;;;30.10;99557.00;;;;16691104;28;20260;-73
2022/10/27 12:53:46;;;;;;;8.67;3.70;;;;;30.60;99550.00;;;;16668427;28;20364;-73
2022/10/27 13:01:55;;;;;;;10.00;3.97;;;;;31.10;99548.00;;;;16695129;28;20206;-73
2022/10/27 13:10:29;;;;;;;7.17;4.00;;;;;31.10;99546.00;;;;16701688;28;20225;-73
2022/10/27 13:18:56;;;;;;;9.53;3.80;;;;;31.50;99540.00;;;;16688903;28;20236;-73
2022/10/27 13:27:06;;;;;;;9.83;3.93;;;;;31.70;99529.00;;;;16677115;28;20311;-72
2022/10/27 13:35:39;;;;;;;8.03;3.40;;;;;31.40;99535.00;;;;16677172;28;20313;-73
2022/10/27 13:43:46;;;;;;;5.83;3.23;;;;;31.10;99531.00;;;;16669649;28;20210;-72
2022/10/27 13:51:51;;;;;;;8.87;4.40;;;;;30.80;99522.00;;;;16690253;28;20298;-72
2022/10/27 14:00:02;;;;;;;8.47;4.70;;;;;29.70;99516.00;;;;16698282;28;20372;-71
2022/10/27 14:08:19;;;;;;;9.23;5.63;;;;;29.10;99532.00;;;;16704037;28;20245;-71
2022/10/27 14:16:26;;;;;;;12.23;7.50;;;;;28.90;99522.00;;;;16706302;28;20315;-70
2022/10/27 14:24:34;;;;;;;15.00;12.23;;;;;28.80;99525.00;;;;16705849;28;20324;-70
2022/10/27 14:32:38;;;;;;;17.73;10.20;;;;;28.50;99528.00;;;;16712158;28;20217;-70
2022/10/27 14:40:40;;;;;;;8.23;5.00;;;;;28.30;99525.00;;;;16706618;28;20308;-70
2022/10/27 14:48:44;;;;;;;15.80;11.60;;;;;27.60;99512.00;;;;16705741;28;20214;-71
2022/10/27 14:56:47;;;;;;;11.10;8.17;;;;;26.30;99517.00;;;;16706270;28;20250;-72
2022/10/27 15:04:51;;;;;;;15.40;5.53;;;;;24.10;99530.00;;;;16702025;28;20832;-70
2022/10/27 15:12:56;;;;;;;9.83;7.00;;;;;23.00;99536.00;;;;16696184;28;20226;-71
2022/10/27 15:21:00;;;;;;;11.83;5.47;;;;;22.70;99534.00;;;;16698070;28;20311;-70
2022/10/27 15:29:03;;;;;;;9.47;3.67;;;;;21.70;99527.00;;;;16690090;28;20230;-70
2022/10/27 15:37:26;;;;;;;7.10;3.90;;;;;21.20;99536.00;;;;16678570;28;20245;-69
2022/10/27 15:45:38;;;;;;;6.80;4.63;;;;;21.10;99546.00;;;;16675744;28;20229;-70
2022/10/27 15:53:48;;;;;;;10.73;4.20;;;;;21.20;99556.00;;;;16703352;28;20243;-71
2022/10/27 16:01:53;;;;;;;10.83;4.20;;;;;20.50;99564.00;;;;16699493;28;20272;-71
2022/10/27 16:09:57;;;;;;;8.33;4.07;;;;;20.10;99561.00;;;;16698289;28;20226;-71
2022/10/27 16:18:01;;;;;;;6.00;4.40;;;;;19.90;99556.00;;;;16691686;28;20229;-71
2022/10/27 16:26:05;;;;;;;9.57;5.80;;;;;19.80;99550.00;;;;16711294;28;20221;-70
2022/10/27 16:34:08;;;;;;;9.13;5.30;;;;;19.40;99552.00;;;;16697334;28;20230;-70
2022/10/27 16:42:12;;;;;;;16.50;8.43;;;;;19.00;99571.00;;;;16696885;28;20673;-70
2022/10/27 16:50:15;;;;;;;12.17;6.43;;;;;19.60;99554.00;;;;16705058;28;20317;-70
2022/10/27 16:58:18;;;;;;;9.00;6.53;;;;;19.20;99561.00;;;;16701267;28;20360;-71
2022/10/27 17:06:21;;;;;;;10.17;5.97;;;;;18.90;99570.00;;;;16686769;28;20634;-70
2022/10/27 17:14:25;;;;;;;12.00;6.63;;;;;18.90;99581.00;;;;16700885;28;20947;-71
2022/10/27 17:22:28;;;;;;;8.33;4.87;;;;;18.60;99597.00;;;;16705029;28;20312;-71
2022/10/27 17:30:31;;;;;;;13.43;5.63;;;;;18.80;99595.00;;;;16700190;28;20222;-71
2022/10/27 17:38:34;;;;;;;11.10;6.17;;;;;18.50;99605.00;;;;16703094;28;20343;-71
2022/10/27 17:46:38;;;;;;;10.43;6.90;;;;;18.20;99614.00;;;;16673657;28;20294;-72
2022/10/27 17:54:41;;;;;;;12.90;6.50;;;;;18.10;99624.00;;;;16693980;28;20234;-71
2022/10/27 18:02:45;;;;;;;17.10;11.80;;;;;17.80;99628.00;;;;16689370;28;20703;-71
2022/10/27 18:10:47;;;;;;;12.30;7.30;;;;;17.80;99638.00;;;;16690920;28;20233;-71
2022/10/27 18:18:53;;;;;;;12.60;6.80;;;;;18.00;99643.00;;;;16691362;28;20222;-71
2022/10/27 18:26:55;;;;;;;7.27;5.07;;;;;17.60;99652.00;;;;16689917;28;20360;-71
2022/10/27 18:34:59;;;;;;;7.57;5.27;;;;;17.70;99651.00;;;;16685836;28;20321;-71
2022/10/27 18:43:02;;;;;;;13.77;7.23;;;;;17.30;99650.00;;;;16693049;28;20214;-71
2022/10/27 18:51:07;;;;;;;11.33;7.10;;;;;17.30;99662.00;;;;16697049;28;20230;-71
2022/10/27 18:59:12;;;;;;;11.10;6.37;;;;;17.20;99654.00;;;;16699004;28;20335;-71
2022/10/27 19:07:15;;;;;;;9.33;7.00;;;;;17.40;99648.00;;;;16703749;28;20548;-70
2022/10/27 19:15:18;;;;;;;10.40;5.90;;;;;17.00;99647.00;;;;16709157;28;20246;-71
2022/10/27 19:23:22;;;;;;;8.43;5.93;;;;;17.00;99657.00;;;;16704313;28;20304;-70
2022/10/27 19:31:26;;;;;;;15.07;10.60;;;;;17.20;99639.00;;;;16702944;28;20233;-70
2022/10/27 19:39:30;;;;;;;12.20;7.87;;;;;17.20;99642.00;;;;16705372;28;20257;-70
2022/10/27 19:47:33;;;;;;;17.77;8.67;;;;;17.40;99627.00;;;;16715036;28;20226;-71
2022/10/27 19:55:37;;;;;;;10.30;6.03;;;;;17.00;99642.00;;;;16712475;28;20396;-73
2022/10/27 20:03:40;;;;;;;9.87;5.37;;;;;17.60;99626.00;;;;16703266;28;20246;-71
2022/10/27 20:11:44;;;;;;;8.33;5.67;;;;;17.40;99634.00;;;;16697550;28;20234;-71
2022/10/27 20:19:47;;;;;;;14.23;5.53;;;;;17.40;99632.00;;;;16683313;28;20238;-69
2022/10/27 20:27:50;;;;;;;13.30;7.63;;;;;16.90;99632.00;;;;16698769;28;20750;-71
2022/10/27 20:35:59;;;;;;;7.17;5.23;;;;;16.70;99643.00;;;;16694608;28;20226;-71
2022/10/27 20:44:03;;;;;;;11.97;8.40;;;;;16.60;99640.00;;;;16683309;28;20772;-71
2022/10/27 20:52:06;;;;;;;12.00;8.23;;;;;16.50;99653.00;;;;16681750;28;20903;-71
2022/10/27 21:00:12;;;;;;;10.47;6.10;;;;;16.60;99650.00;;;;16678269;28;20235;-71
2022/10/27 21:08:14;;;;;;;12.27;7.73;;;;;16.30;99653.00;;;;16688426;28;20214;-72
2022/10/27 21:16:18;;;;;;;11.67;7.27;;;;;17.10;99639.00;;;;16694554;28;20317;-72
2022/10/27 21:24:20;;;;;;;10.43;7.93;;;;;17.70;99633.00;;;;16695244;28;20205;-72
2022/10/27 21:32:24;;;;;;;8.57;4.80;;;;;16.80;99628.00;;;;16698673;28;20229;-71
2022/10/27 21:40:27;;;;;;;12.73;7.20;;;;;16.10;99638.00;;;;16715516;22;20266;-48
2022/10/27 21:48:31;;;;;;;9.50;5.07;;;;;15.90;99651.00;;;;16637300;28;20226;-47
2022/10/27 21:56:34;;;;;;;11.93;8.10;;;;;16.30;99644.00;;;;16640886;28;20741;-48
2022/10/27 22:04:38;;;;;;;12.93;8.17;;;;;16.40;99653.00;;;;16636569;28;20226;-48
2022/10/27 22:12:40;;;;;;;12.87;7.17;;;;;16.70;99648.00;;;;16637889;28;20640;-48
2022/10/27 22:20:44;;;;;;;12.07;8.00;;;;;16.90;99649.00;;;;16610451;28;20214;-48
2022/10/27 22:28:47;;;;;;;8.80;5.00;;;;;16.00;99653.00;;;;16637834;28;20225;-48
2022/10/27 22:36:51;;;;;;;14.33;8.90;;;;;16.20;99647.00;;;;16657011;28;20239;-48
2022/10/27 22:44:53;;;;;;;16.07;7.97;;;;;16.30;99647.00;;;;16645116;28;20227;-48
2022/10/27 22:52:57;;;;;;;14.27;9.40;;;;;16.30;99639.00;;;;16648312;28;20222;-48
2022/10/27 23:01:04;;;;;;;12.20;6.47;;;;;16.50;99629.00;;;;16655119;28;20230;-47
2022/10/27 23:09:12;;;;;;;12.13;8.17;;;;;16.90;99626.00;;;;16619486;28;20219;-47
2022/10/27 23:17:15;;;;;;;11.30;7.20;;;;;17.10;99634.00;;;;16642132;28;20230;-48
2022/10/27 23:25:18;;;;;;;14.33;7.00;;;;;17.10;99635.00;;;;16613410;28;20218;-48
2022/10/27 23:33:21;;;;;;;11.23;6.87;;;;;17.00;99629.00;;;;16644528;28;20223;-48
2022/10/27 23:41:25;;;;;;;12.33;7.27;;;;;17.00;99636.00;;;;16651056;28;20207;-48
2022/10/27 23:49:27;;;;;;;9.53;7.13;;;;;17.00;99637.00;;;;16641192;28;20218;-47
2022/10/27 23:57:31;;;;;;;11.83;7.03;;;;;16.90;99641.00;;;;16646718;28;20231;-48
